CheckWX is a tool to help pilots better visualize weather data.  It is not intended as a substitute for an official pre-flight weather briefing.

07:11:01 UTC

ETMN METAR
Nordholz Naval Airbase Airport
Cuxhaven, Germany
Current

6 mins ago

ETMN 210705Z 35011KT 2800 BR OVC001 13/12 Q1007 RED YLO TEMPO RED
Observed
May-21 @ 07:05 UTC
Wind
  • 350° at 11 KTS
Visibility
2,800 meters
Flight Rules
LIFR
Conditions
Mist
Cloud Levels
  • Overcast at 100' AGL
Temperature
13°C / 55°F
Dewpoint
12°C / 54°F
Humidity
94%
Altimeter
29.73" Hg
Pressure
1006.92 hPa
Previous

26 mins ago

ETMN 210645Z 35009KT 4000 BR OVC002 13/12 Q1007 AMB YLO TEMPO RED
Observed
May-21 @ 06:45 UTC
Wind
  • 350° at 9 KTS
Visibility
4,007 meters
Flight Rules
LIFR
Conditions
Mist
Cloud Levels
  • Overcast at 200' AGL
Temperature
13°C / 55°F
Dewpoint
12°C / 54°F
Humidity
94%
Altimeter
29.73" Hg
Pressure
1006.92 hPa
Previous

51 mins ago

ETMN 210620Z 35011KT 7000 BKN004 14/12 Q1007 YLO YLO
Observed
May-21 @ 06:20 UTC
Wind
  • 350° at 11 KTS
Visibility
7,001 meters
Flight Rules
LIFR
Cloud Levels
  • Broken at 400' AGL
Temperature
14°C / 57°F
Dewpoint
12°C / 54°F
Humidity
88%
Altimeter
29.73" Hg
Pressure
1006.92 hPa